Time;durP1;ratioP1;P1;durP2;ratioP2;P2;SDS_P1;SDS_P2;PMS_P1;PMS_P2;Temp;Humidity;BMP_temperature;BMP_pressure;BME280_temperature;BME280_humidity;BME280_pressure;Samples;Min_cycle;Max_cycle;Signal;HPM_P1;HPM_P2
2023/02/09 00:03:11;;;;;;;18.60;15.77;;;-1.20;63.80;;;;;;2615470;54;20178;-72
2023/02/09 00:08:59;;;;;;;19.00;17.20;;;-1.20;55.60;;;;;;2615356;54;20119;-71
2023/02/09 00:19:02;;;;;;;19.47;17.77;;;-1.90;75.60;;;;;;2614740;46;20401;-71
2023/02/09 00:24:49;;;;;;;18.63;17.07;;;-2.00;86.20;;;;;;2615400;39;20773;-70
2023/02/09 00:30:37;;;;;;;18.97;17.30;;;-2.10;89.40;;;;;;2615403;54;20118;-70
2023/02/09 00:36:25;;;;;;;18.63;16.80;;;-1.90;79.50;;;;;;2614417;54;20150;-71
2023/02/09 00:42:12;;;;;;;19.57;17.53;;;-1.90;85.80;;;;;;2615692;39;20703;-72
2023/02/09 00:48:00;;;;;;;21.83;19.20;;;-0.70;51.60;;;;;;2614615;54;20253;-71
2023/02/09 00:53:48;;;;;;;20.00;18.27;;;-0.10;35.30;;;;;;2615262;54;20626;-71
2023/02/09 00:59:39;;;;;;;20.20;18.60;;;0.20;25.40;;;;;;2614751;54;20130;-71
2023/02/09 01:05:26;;;;;;;19.40;16.63;;;0.40;23.90;;;;;;2615171;54;20367;-71
2023/02/09 01:11:15;;;;;;;19.27;17.63;;;0.50;23.30;;;;;;2615381;54;20151;-71
2023/02/09 01:17:14;;;;;;;19.20;17.37;;;0.60;23.20;;;;;;2613940;39;20955;-70
2023/02/09 01:23:01;;;;;;;18.87;17.07;;;0.70;20.50;;;;;;2614024;54;20681;-72
2023/02/09 01:28:52;;;;;;;18.77;17.23;;;0.80;18.50;;;;;;2613656;54;20153;-72
2023/02/09 01:34:40;;;;;;;21.13;19.37;;;1.20;16.80;;;;;;2613798;39;20826;-70
2023/02/09 01:40:27;;;;;;;19.07;17.73;;;1.10;16.80;;;;;;2613698;54;20119;-70
2023/02/09 01:46:14;;;;;;;23.27;21.03;;;0.80;17.30;;;;;;2613881;54;20125;-71
2023/02/09 01:52:09;;;;;;;22.57;20.43;;;0.90;17.70;;;;;;2613615;54;20139;-73
2023/02/09 01:58:07;;;;;;;22.70;20.40;;;0.90;16.70;;;;;;2615689;54;20350;-69
2023/02/09 02:03:55;;;;;;;20.03;17.60;;;1.00;16.90;;;;;;2615648;54;20474;-71
2023/02/09 02:09:44;;;;;;;22.50;20.10;;;0.90;17.10;;;;;;2614663;54;20123;-72
2023/02/09 02:19:16;;;;;;;22.67;20.47;;;0.80;17.80;;;;;;2614799;54;20370;-71
2023/02/09 02:25:41;;;;;;;21.53;19.63;;;0.60;20.40;;;;;;2615083;54;20411;-72
2023/02/09 02:31:29;;;;;;;22.83;20.30;;;0.40;23.50;;;;;;2615076;54;20395;-72
2023/02/09 02:44:17;;;;;;;21.67;19.77;;;0.40;23.70;;;;;;2613438;54;20423;-71
2023/02/09 02:50:13;;;;;;;23.07;20.80;;;0.20;25.60;;;;;;2614654;39;20791;-71
2023/02/09 03:02:24;;;;;;;22.37;20.17;;;0.30;25.40;;;;;;2614318;54;20376;-71
2023/02/09 03:08:11;;;;;;;21.60;19.60;;;0.20;26.40;;;;;;2614770;54;20488;-71
2023/02/09 03:14:03;;;;;;;23.27;20.93;;;0.20;26.10;;;;;;2614400;54;20118;-71
2023/02/09 03:26:35;;;;;;;23.47;21.00;;;0.10;26.10;;;;;;2615964;54;20405;-71
2023/02/09 03:32:24;;;;;;;22.37;20.27;;;0.00;28.90;;;;;;2615590;54;20474;-70
2023/02/09 03:38:11;;;;;;;23.00;20.77;;;0.00;28.40;;;;;;2614748;54;20422;-70
2023/02/09 03:50:06;;;;;;;24.63;22.37;;;-0.20;32.10;;;;;;2617532;39;20723;-74
2023/02/09 03:55:54;;;;;;;23.23;20.67;;;-0.50;35.50;;;;;;2617272;54;20390;-74
2023/02/09 04:01:41;;;;;;;21.53;19.63;;;-0.40;36.20;;;;;;2616180;54;20162;-74
2023/02/09 04:07:29;;;;;;;28.70;25.93;;;-0.30;36.80;;;;;;2617104;54;20174;-75
2023/02/09 04:13:17;;;;;;;23.90;21.50;;;-0.60;38.60;;;;;;2617118;54;20142;-76
2023/02/09 04:19:05;;;;;;;25.10;22.63;;;-0.50;37.50;;;;;;2616097;54;20121;-74
2023/02/09 04:24:52;;;;;;;23.47;20.93;;;-0.50;37.60;;;;;;2616331;54;20405;-75
2023/02/09 04:30:42;;;;;;;26.90;23.60;;;-0.50;36.70;;;;;;2616896;54;20154;-74
2023/02/09 04:36:30;;;;;;;23.70;21.33;;;-0.40;33.30;;;;;;2616618;54;20955;-76
2023/02/09 04:42:17;;;;;;;24.17;21.73;;;-0.80;36.50;;;;;;2617740;31;20645;-74
2023/02/09 04:48:06;;;;;;;24.93;22.73;;;-0.70;41.00;;;;;;2616846;54;20143;-73
2023/02/09 04:53:54;;;;;;;23.37;21.10;;;-0.90;44.90;;;;;;2617527;39;21007;-74
2023/02/09 04:59:43;;;;;;;24.70;21.83;;;-0.80;44.90;;;;;;2615617;54;20135;-74
2023/02/09 05:05:31;;;;;;;23.77;21.33;;;-0.60;41.30;;;;;;2617131;54;20405;-73
2023/02/09 05:11:18;;;;;;;25.07;22.37;;;-0.90;41.60;;;;;;2616592;54;20118;-74
2023/02/09 05:14:32;;;;;;;24.63;22.23;;;-0.80;41.30;;;;;;2616059;54;20395;-75
2023/02/09 05:16:58;;;;;;;25.63;22.90;;;-0.90;43.00;;;;;;2616839;54;20154;-75
2023/02/09 05:22:46;;;;;;;27.73;24.93;;;-1.00;48.10;;;;;;2616973;54;20398;-76
2023/02/09 05:28:34;;;;;;;34.00;23.33;;;-1.20;53.30;;;;;;2617326;39;20839;-75
2023/02/09 05:34:22;;;;;;;29.80;23.67;;;-1.70;65.00;;;;;;2617028;54;20131;-76
2023/02/09 05:40:10;;;;;;;26.37;23.67;;;-2.10;88.50;;;;;;2616374;54;20134;-75
2023/02/09 05:45:58;;;;;;;23.90;21.50;;;-2.40;99.90;;;;;;2616881;54;20414;-75
2023/02/09 05:51:45;;;;;;;24.80;21.53;;;-2.20;99.90;;;;;;2616331;54;20134;-73
2023/02/09 05:57:33;;;;;;;23.60;21.27;;;-1.40;76.90;;;;;;2616748;54;20126;-73
2023/02/09 06:03:21;;;;;;;23.30;21.00;;;-0.80;54.60;;;;;;2616460;54;20141;-74
2023/02/09 06:09:09;;;;;;;21.27;19.30;;;-0.80;49.10;;;;;;2616740;54;20172;-74
2023/02/09 06:19:05;;;;;;;27.93;25.00;;;-0.80;46.50;;;;;;2616246;54;20563;-75
2023/02/09 06:21:32;;;;;;;23.30;21.00;;;-0.80;47.50;;;;;;2616546;54;20486;-72
2023/02/09 06:23:58;;;;;;;26.80;24.17;;;-0.70;46.90;;;;;;2616689;54;20937;-75
2023/02/09 06:29:46;;;;;;;26.47;23.60;;;-0.80;48.10;;;;;;2616937;54;20146;-75
2023/02/09 06:35:33;;;;;;;26.20;22.07;;;-0.90;51.40;;;;;;2616624;54;20176;-74
2023/02/09 06:41:21;;;;;;;27.17;24.33;;;-0.70;47.10;;;;;;2616697;54;20122;-74
2023/02/09 06:47:09;;;;;;;27.80;23.57;;;-0.90;50.30;;;;;;2616571;54;20632;-75
2023/02/09 06:52:57;;;;;;;23.80;21.43;;;-0.80;52.60;;;;;;2617057;39;20543;-75
2023/02/09 06:58:45;;;;;;;27.47;24.00;;;-0.80;50.10;;;;;;2616370;54;20916;-74
2023/02/09 07:04:32;;;;;;;25.90;23.30;;;-0.80;50.20;;;;;;2616547;54;20146;-72
2023/02/09 07:10:20;;;;;;;25.30;22.63;;;-1.00;52.00;;;;;;2617003;39;20502;-72
2023/02/09 07:16:09;;;;;;;29.43;24.70;;;-1.20;56.90;;;;;;2616547;54;20119;-73
2023/02/09 07:22:07;;;;;;;28.03;25.03;;;-1.00;56.60;;;;;;2614329;54;20393;-73
2023/02/09 07:27:54;;;;;;;24.63;22.00;;;-0.70;51.70;;;;;;2613681;54;20671;-73
2023/02/09 07:33:42;;;;;;;23.30;21.10;;;-0.20;40.40;;;;;;2615227;54;20644;-75
2023/02/09 07:39:29;;;;;;;26.47;23.07;;;0.90;26.30;;;;;;2616485;39;20847;-74
2023/02/09 07:45:17;;;;;;;27.70;24.53;;;2.20;13.90;;;;;;2615641;54;20395;-74
2023/02/09 07:51:04;;;;;;;28.80;25.77;;;2.40;10.40;;;;;;2615676;54;20171;-75
2023/02/09 07:56:54;;;;;;;27.10;24.30;;;1.20;16.90;;;;;;2615691;54;20383;-74
2023/02/09 08:02:43;;;;;;;27.07;24.17;;;1.50;16.60;;;;;;2616930;54;20366;-74
2023/02/09 08:08:30;;;;;;;29.50;26.30;;;2.50;11.00;;;;;;2616821;54;20367;-74
2023/02/09 08:14:24;;;;;;;31.83;25.83;;;3.20;5.40;;;;;;2616738;54;20223;-74
2023/02/09 08:23:38;;;;;;;28.77;26.10;;;2.80;6.20;;;;;;2616559;54;20390;-74
2023/02/09 08:29:26;;;;;;;29.00;23.67;;;3.20;6.60;;;;;;2616770;54;20409;-75
2023/02/09 08:35:14;;;;;;;25.53;22.90;;;4.30;1.80;;;;;;2617068;54;20388;-74
2023/02/09 08:41:07;;;;;;;27.83;25.23;;;3.90;1.00;;;;;;2616790;46;20166;-73
2023/02/09 08:46:55;;;;;;;25.77;23.47;;;5.40;1.00;;;;;;2616269;54;20945;-74
2023/02/09 08:52:43;;;;;;;26.90;24.40;;;4.70;1.00;;;;;;2616754;54;20139;-74
2023/02/09 08:58:32;;;;;;;27.83;25.20;;;5.60;1.00;;;;;;2616216;54;20418;-74
2023/02/09 09:04:20;;;;;;;29.40;26.87;;;6.10;1.00;;;;;;2616566;54;20343;-73
2023/02/09 09:10:09;;;;;;;28.53;25.73;;;5.60;1.00;;;;;;2616728;54;20374;-74
2023/02/09 09:15:56;;;;;;;30.13;27.03;;;6.40;1.00;;;;;;2616578;54;20894;-73
2023/02/09 09:19:06;;;;;;;28.53;26.03;;;6.00;1.00;;;;;;2615911;39;20716;-74
2023/02/09 09:21:32;;;;;;;29.93;26.13;;;6.40;1.00;;;;;;2615796;46;20333;-73
2023/02/09 09:27:20;;;;;;;30.07;27.47;;;8.70;1.00;;;;;;2616574;54;20439;-73
2023/02/09 09:33:08;;;;;;;28.33;25.20;;;7.10;1.00;;;;;;2616639;54;20154;-74
2023/02/09 09:38:56;;;;;;;28.23;25.67;;;7.50;1.00;;;;;;2616317;54;20246;-74
2023/02/09 09:44:44;;;;;;;26.17;24.00;;;7.10;1.00;;;;;;2616637;54;20885;-73
2023/02/09 09:56:48;;;;;;;26.13;23.67;;;7.10;1.00;;;;;;2616514;54;20387;-74
2023/02/09 10:02:38;;;;;;;25.47;23.17;;;7.90;1.00;;;;;;2616638;54;20403;-74
2023/02/09 10:15:31;;;;;;;27.37;24.90;;;7.00;1.00;;;;;;2615076;54;20901;-73
2023/02/09 10:18:52;;;;;;;27.17;24.33;;;7.60;1.00;;;;;;2614686;54;20412;-73
2023/02/09 10:24:40;;;;;;;25.83;23.50;;;9.00;1.00;;;;;;2615098;54;20426;-73
2023/02/09 10:27:55;;;;;;;26.03;23.53;;;8.90;1.00;;;;;;2614979;54;20375;-73
2023/02/09 10:33:44;;;;;;;22.30;20.33;;;9.30;1.00;;;;;;2615075;54;20965;-73
2023/02/09 10:39:33;;;;;;;25.10;22.63;;;8.90;1.00;;;;;;2615639;39;21233;-73
2023/02/09 10:56:10;;;;;;;23.13;21.10;;;8.20;1.00;;;;;;2616405;54;20457;-73
2023/02/09 11:02:03;;;;;;;24.00;22.10;;;8.90;1.00;;;;;;2616480;54;20391;-75
2023/02/09 11:07:58;;;;;;;25.07;22.63;;;8.10;1.00;;;;;;2617440;54;20370;-74
2023/02/09 11:13:46;;;;;;;24.73;22.20;;;9.00;1.00;;;;;;2617170;54;20378;-73
2023/02/09 11:23:24;;;;;;;23.00;20.63;;;9.20;1.00;;;;;;2617588;54;20452;-74
2023/02/09 11:38:53;;;;;;;23.63;21.70;;;10.10;1.00;;;;;;2617085;54;20388;-74
2023/02/09 11:51:04;;;;;;;23.63;21.50;;;10.70;1.00;;;;;;2617206;54;20424;-75
2023/02/09 11:56:58;;;;;;;26.30;23.97;;;10.90;1.00;;;;;;2616806;54;20407;-73
2023/02/09 12:16:13;;;;;;;25.33;22.87;;;10.50;1.00;;;;;;2617105;54;20962;-74
2023/02/09 12:22:31;;;;;;;23.30;21.00;;;10.50;1.00;;;;;;2617392;39;20774;-73
2023/02/09 12:28:28;;;;;;;23.40;21.37;;;10.30;1.00;;;;;;2616601;54;20491;-74
2023/02/09 12:40:36;;;;;;;22.57;20.43;;;10.30;1.00;;;;;;2616862;54;20399;-73
2023/02/09 12:53:21;;;;;;;22.47;20.27;;;10.10;1.00;;;;;;2616909;54;20383;-75
2023/02/09 12:59:15;;;;;;;24.87;22.60;;;10.70;1.00;;;;;;2616791;54;20362;-73
2023/02/09 13:11:50;;;;;;;23.53;21.43;;;11.20;1.00;;;;;;2616839;54;20459;-73
2023/02/09 13:34:23;;;;;;;24.57;22.37;;;8.90;1.00;;;;;;2616495;54;20607;-74
2023/02/09 13:40:19;;;;;;;25.03;22.63;;;8.50;1.00;;;;;;2616722;54;20402;-74
2023/02/09 13:52:33;;;;;;;24.80;22.33;;;8.60;1.00;;;;;;2617090;54;20383;-73
2023/02/09 14:04:52;;;;;;;23.40;21.27;;;9.00;1.00;;;;;;2616484;54;20411;-74
2023/02/09 14:27:57;;;;;;;26.50;23.93;;;7.50;1.00;;;;;;2615376;54;20405;-72
2023/02/09 14:33:49;;;;;;;28.50;25.27;;;7.30;1.00;;;;;;2615183;54;20399;-76
2023/02/09 14:39:59;;;;;;;27.53;24.97;;;6.60;1.00;;;;;;2615043;54;20415;-73
2023/02/09 14:46:06;;;;;;;26.60;24.20;;;6.50;1.00;;;;;;2615076;54;20659;-73
2023/02/09 14:58:29;;;;;;;27.50;24.23;;;6.30;1.00;;;;;;2615311;54;20367;-73
2023/02/09 15:04:18;;;;;;;24.97;22.80;;;6.10;1.00;;;;;;2615281;54;20937;-74
2023/02/09 15:16:37;;;;;;;25.07;22.57;;;5.70;1.00;;;;;;2615006;54;20392;-74
2023/02/09 15:22:24;;;;;;;23.93;21.90;;;5.40;1.00;;;;;;2616630;54;20118;-72
2023/02/09 15:28:33;;;;;;;26.43;23.70;;;5.50;1.00;;;;;;2616365;54;21130;-75
2023/02/09 15:34:30;;;;;;;26.10;23.30;;;5.40;1.00;;;;;;2615356;54;20517;-75
2023/02/09 15:52:53;;;;;;;34.23;24.70;;;4.90;1.00;;;;;;2616529;31;20904;-73
2023/02/09 15:58:43;;;;;;;28.17;25.67;;;4.80;1.00;;;;;;2616033;54;20418;-73
2023/02/09 16:04:30;;;;;;;31.37;28.17;;;4.60;1.00;;;;;;2616433;39;20802;-73
2023/02/09 16:10:24;;;;;;;29.33;26.57;;;4.40;1.00;;;;;;2617024;54;20134;-74
2023/02/09 16:16:12;;;;;;;29.87;26.97;;;4.30;1.00;;;;;;2616843;54;20375;-74
2023/02/09 16:22:03;;;;;;;34.10;24.73;;;4.10;1.00;;;;;;2617185;54;21460;-74
2023/02/09 16:27:52;;;;;;;27.40;24.80;;;3.90;1.00;;;;;;2617433;39;20765;-73
2023/02/09 16:33:42;;;;;;;26.93;24.43;;;3.60;1.50;;;;;;2617258;39;21058;-74
2023/02/09 16:39:29;;;;;;;33.43;27.40;;;3.30;5.50;;;;;;2617494;54;20945;-73
2023/02/09 16:45:18;;;;;;;29.70;26.53;;;2.90;11.70;;;;;;2616908;54;20126;-73
2023/02/09 16:51:06;;;;;;;31.30;26.20;;;2.60;16.20;;;;;;2617214;54;20399;-75
2023/02/09 16:56:55;;;;;;;30.07;27.07;;;2.40;22.50;;;;;;2616719;54;20127;-74
2023/02/09 17:02:50;;;;;;;34.50;28.67;;;2.60;21.70;;;;;;2617002;54;20391;-76
2023/02/09 17:08:38;;;;;;;32.33;27.83;;;2.70;19.10;;;;;;2615935;54;20431;-74
2023/02/09 17:14:25;;;;;;;35.37;31.70;;;2.70;18.50;;;;;;2615800;54;20379;-73
2023/02/09 17:23:35;;;;;;;31.60;23.67;;;2.60;18.40;;;;;;2615762;54;21019;-73
2023/02/09 17:32:53;;;;;;;27.50;24.83;;;3.00;14.80;;;;;;2615559;54;20410;-72
2023/02/09 17:38:44;;;;;;;26.13;23.47;;;3.30;12.00;;;;;;2617526;39;20739;-73
2023/02/09 17:44:31;;;;;;;28.60;25.80;;;3.40;10.70;;;;;;2617253;54;20933;-75
2023/02/09 17:50:21;;;;;;;27.73;24.90;;;3.30;13.10;;;;;;2617456;39;20655;-73
2023/02/09 17:56:09;;;;;;;30.57;24.27;;;3.20;12.80;;;;;;2616985;54;20387;-74
2023/02/09 18:01:57;;;;;;;28.10;25.40;;;3.30;12.10;;;;;;2615738;54;20416;-74
2023/02/09 18:07:46;;;;;;;28.93;26.03;;;3.50;10.30;;;;;;2616833;54;20398;-73
2023/02/09 18:13:34;;;;;;;27.57;24.93;;;3.60;10.20;;;;;;2617222;54;20522;-73
2023/02/09 18:19:22;;;;;;;33.97;25.03;;;3.70;9.60;;;;;;2617049;54;20648;-74
2023/02/09 18:31:40;;;;;;;29.53;26.70;;;3.80;10.00;;;;;;2616763;54;20354;-74
2023/02/09 18:37:28;;;;;;;27.20;23.57;;;3.90;9.20;;;;;;2616602;54;20118;-75
2023/02/09 18:43:17;;;;;;;30.33;27.30;;;4.00;8.30;;;;;;2616703;54;20127;-73
2023/02/09 18:49:06;;;;;;;28.20;25.20;;;4.00;8.50;;;;;;2616981;54;20355;-75
2023/02/09 18:54:55;;;;;;;27.43;24.80;;;4.00;9.30;;;;;;2616963;54;20489;-74
2023/02/09 19:00:43;;;;;;;28.57;24.90;;;4.00;10.50;;;;;;2616631;54;20383;-74
2023/02/09 19:06:34;;;;;;;34.80;31.23;;;4.00;10.80;;;;;;2616656;54;20396;-74
2023/02/09 19:12:22;;;;;;;30.63;27.53;;;4.00;11.30;;;;;;2616466;54;20955;-74
2023/02/09 19:18:10;;;;;;;31.27;27.87;;;4.10;12.40;;;;;;2616600;46;20430;-74
2023/02/09 19:23:58;;;;;;;32.90;26.87;;;4.10;13.70;;;;;;2616961;54;20139;-74
2023/02/09 19:29:46;;;;;;;31.00;27.63;;;4.10;14.40;;;;;;2617450;54;20138;-73
2023/02/09 19:35:56;;;;;;;30.23;27.03;;;4.10;15.70;;;;;;2615833;54;20138;-73
2023/02/09 19:41:45;;;;;;;32.23;28.70;;;4.20;17.10;;;;;;2616029;54;21109;-75
2023/02/09 19:47:32;;;;;;;37.70;30.00;;;4.20;18.90;;;;;;2615870;54;20428;-74
2023/02/09 19:53:20;;;;;;;31.80;28.00;;;4.20;21.90;;;;;;2615962;54;20122;-75
2023/02/09 19:59:09;;;;;;;34.33;30.60;;;4.20;25.80;;;;;;2616329;54;20429;-74
2023/02/09 20:04:56;;;;;;;33.50;29.90;;;4.20;28.80;;;;;;2615989;54;20484;-74
2023/02/09 20:10:43;;;;;;;33.83;29.67;;;4.20;30.90;;;;;;2617366;54;20231;-75
2023/02/09 20:16:31;;;;;;;36.43;32.47;;;4.30;35.80;;;;;;2617292;54;20957;-75
2023/02/09 20:22:20;;;;;;;36.67;30.60;;;4.30;40.50;;;;;;2617556;54;20118;-75
2023/02/09 20:28:12;;;;;;;38.00;34.07;;;4.30;44.20;;;;;;2617180;54;20380;-74
2023/02/09 20:37:22;;;;;;;47.60;40.20;;;4.30;58.00;;;;;;2616768;54;20419;-74
2023/02/09 20:49:18;;;;;;;41.60;32.63;;;4.60;77.20;;;;;;2617061;54;20399;-75
2023/02/09 20:55:06;;;;;;;42.07;32.67;;;4.60;83.80;;;;;;2617406;54;20358;-74
2023/02/09 21:00:54;;;;;;;37.23;28.73;;;4.60;89.70;;;;;;2616979;54;20134;-75
2023/02/09 21:06:42;;;;;;;40.10;31.73;;;4.60;92.10;;;;;;2617228;54;20126;-74
2023/02/09 21:12:30;;;;;;;37.27;28.80;;;4.60;93.80;;;;;;2617222;54;20383;-74
2023/02/09 21:18:20;;;;;;;48.50;33.40;;;4.60;96.50;;;;;;2617110;54;20656;-75
2023/02/09 21:24:08;;;;;;;43.70;31.47;;;4.50;99.90;;;;;;2617483;39;20734;-75
2023/02/09 21:29:56;;;;;;;43.63;32.77;;;4.50;99.90;;;;;;2617148;54;20413;-75
2023/02/09 21:35:52;;;;;;;40.97;31.90;;;4.40;99.90;;;;;;2615125;54;20936;-74
2023/02/09 21:47:45;;;;;;;39.50;32.73;;;4.30;99.90;;;;;;2615306;54;20500;-74
2023/02/09 21:53:32;;;;;;;39.90;30.80;;;4.30;99.90;;;;;;2615716;54;20118;-73
2023/02/09 21:56:35;;;;;;;40.77;33.03;;;4.30;99.90;;;;;;2615483;54;20408;-74
2023/02/09 22:02:53;;;;;;;36.23;29.67;;;4.20;99.90;;;;;;2615547;54;20416;-75
2023/02/09 22:08:40;;;;;;;44.13;33.60;;;4.20;99.90;;;;;;2615492;54;20467;-75
2023/02/09 22:14:29;;;;;;;45.13;34.07;;;4.30;99.90;;;;;;2616944;54;20129;-74
2023/02/09 22:20:17;;;;;;;44.87;35.13;;;4.30;99.90;;;;;;2616839;54;20941;-74
2023/02/09 22:26:05;;;;;;;43.27;35.10;;;4.40;99.90;;;;;;2616688;54;20118;-73
2023/02/09 22:31:53;;;;;;;44.57;33.90;;;4.60;99.90;;;;;;2617032;39;20791;-75
2023/02/09 22:37:41;;;;;;;43.50;33.27;;;4.70;99.90;;;;;;2616501;54;20126;-74
2023/02/09 22:43:28;;;;;;;45.33;30.70;;;4.70;99.90;;;;;;2616640;54;20192;-75
2023/02/09 22:49:20;;;;;;;52.73;30.20;;;4.70;99.90;;;;;;2616785;54;20231;-74
2023/02/09 22:55:08;;;;;;;42.33;30.93;;;4.80;99.90;;;;;;2616595;54;20371;-74
2023/02/09 23:00:56;;;;;;;48.97;32.67;;;4.70;99.90;;;;;;2617126;39;20564;-74
2023/02/09 23:06:44;;;;;;;47.07;32.00;;;4.70;99.90;;;;;;2617780;39;20980;-75
2023/02/09 23:12:32;;;;;;;48.23;30.20;;;4.70;99.90;;;;;;2617701;54;20138;-74
2023/02/09 23:18:20;;;;;;;43.47;32.60;;;4.70;99.90;;;;;;2617507;54;20830;-73
2023/02/09 23:24:08;;;;;;;57.03;37.40;;;4.70;99.90;;;;;;2617446;54;20118;-73
2023/02/09 23:29:56;;;;;;;52.17;35.43;;;4.70;99.90;;;;;;2617625;39;20753;-74
2023/02/09 23:35:52;;;;;;;48.70;35.10;;;4.60;99.90;;;;;;2615487;54;20766;-75
2023/02/09 23:41:39;;;;;;;49.03;36.67;;;4.60;99.90;;;;;;2615986;54;20205;-74
2023/02/09 23:47:26;;;;;;;47.37;33.13;;;4.60;99.90;;;;;;2616021;54;20245;-74
2023/02/09 23:53:14;;;;;;;42.30;33.20;;;4.50;99.90;;;;;;2616052;54;20129;-74
2023/02/09 23:59:03;;;;;;;46.73;34.90;;;4.60;99.90;;;;;;2616125;54;20114;-74
